Terminal Aerodrome Forecast
Issued by NWS

Home | Current Version | Previous Version | Text Only | Print | Product List | Glossary On
Versions: 1 2 3 4 5 6 7 8 9 10 11 12 13 14 15 16 17 18 19
000
FTUS45 KVEF 222300
TAFVGT
TAF
KVGT 222320Z 2300/2324 19014G22KT P6SM FEW120
     FM230900 19010KT P6SM SKC
     FM231800 12006KT P6SM SKC=

USA.gov is the U.S. government's official web portal to all federal, state and local government web resources and services.